createdAt,value
2023-04-15T00:01:00.761Z,69.21
2023-04-15T00:03:30.002Z,69.17
2023-04-15T00:05:58.714Z,69.13
2023-04-15T00:08:26.964Z,69.23
2023-04-15T00:10:55.025Z,69.19
2023-04-15T00:13:23.743Z,69.16
2023-04-15T00:15:52.321Z,69.25
2023-04-15T00:18:20.449Z,69.28
2023-04-15T00:20:48.843Z,69.18
2023-04-15T00:23:17.086Z,69.13
2023-04-15T00:25:45.645Z,69.14
2023-04-15T00:28:14.254Z,69.17
2023-04-15T00:30:42.801Z,69.10
2023-04-15T00:33:10.916Z,69.11
2023-04-15T00:35:38.982Z,69.15
2023-04-15T00:38:10.759Z,69.09
2023-04-15T00:40:39.096Z,69.18
2023-04-15T00:43:07.223Z,69.13
2023-04-15T00:45:35.377Z,69.13
2023-04-15T00:48:03.837Z,69.20
2023-04-15T00:50:32.137Z,69.20
2023-04-15T00:53:00.379Z,69.29
2023-04-15T00:55:28.732Z,69.28
2023-04-15T00:57:57.746Z,69.23
2023-04-15T01:00:26.894Z,69.35
2023-04-15T01:02:55.245Z,69.34
2023-04-15T01:05:23.732Z,69.38
2023-04-15T01:07:51.969Z,69.35
2023-04-15T01:10:20.154Z,69.24
2023-04-15T01:12:48.519Z,69.18
2023-04-15T01:15:16.935Z,69.24
2023-04-15T01:17:45.220Z,69.36
2023-04-15T01:20:13.516Z,69.48
2023-04-15T01:22:41.765Z,69.38
2023-04-15T01:25:13.295Z,69.33
2023-04-15T01:27:45.678Z,69.43
2023-04-15T01:30:14.011Z,69.43
2023-04-15T01:32:42.721Z,69.47
2023-04-15T01:35:10.825Z,69.51
2023-04-15T01:37:38.948Z,69.45
2023-04-15T01:40:08.139Z,69.56
2023-04-15T01:42:37.745Z,69.44
2023-04-15T01:45:07.252Z,69.42
2023-04-15T01:47:35.787Z,69.44
2023-04-15T01:50:04.267Z,69.45
2023-04-15T01:52:32.696Z,69.44
2023-04-15T01:55:00.822Z,69.55
2023-04-15T01:57:29.187Z,69.44
2023-04-15T01:59:57.319Z,69.50
2023-04-15T02:02:26.011Z,69.55
2023-04-15T02:04:56.728Z,69.45
2023-04-15T02:07:25.533Z,69.49
2023-04-15T02:09:54.224Z,69.52
2023-04-15T02:12:22.407Z,69.51
2023-04-15T02:14:51.254Z,69.52
2023-04-15T02:17:19.440Z,69.57
2023-04-15T02:19:48.227Z,69.52
2023-04-15T02:22:19.016Z,69.60
2023-04-15T02:24:47.840Z,69.55
2023-04-15T02:27:17.904Z,69.58
2023-04-15T02:29:46.186Z,69.57
2023-04-15T02:32:14.281Z,69.60
2023-04-15T02:34:43.023Z,69.56
2023-04-15T02:37:12.723Z,69.62
2023-04-15T02:39:41.066Z,69.59
2023-04-15T02:42:09.176Z,69.65
2023-04-15T02:44:38.121Z,69.63
2023-04-15T02:47:07.589Z,69.64
2023-04-15T02:49:35.968Z,69.66
2023-04-15T02:52:04.127Z,69.65
2023-04-15T02:54:34.152Z,69.60
2023-04-15T02:57:02.998Z,69.49
2023-04-15T02:59:31.295Z,69.57
2023-04-15T03:02:01.239Z,69.59
2023-04-15T03:04:31.040Z,69.62
2023-04-15T03:06:59.368Z,69.69
2023-04-15T03:09:28.174Z,69.63
2023-04-15T03:11:57.114Z,69.55
2023-04-15T03:14:26.177Z,69.66
2023-04-15T03:16:54.300Z,69.68
2023-04-15T03:19:22.372Z,69.62
2023-04-15T03:21:50.893Z,69.68
2023-04-15T03:24:21.189Z,69.79
2023-04-15T03:26:49.257Z,69.75
2023-04-15T03:29:18.086Z,69.77
2023-04-15T03:31:46.542Z,69.70
2023-04-15T03:34:14.652Z,69.79
2023-04-15T03:36:42.876Z,69.77
2023-04-15T03:39:11.129Z,69.74
2023-04-15T03:41:39.227Z,69.77
2023-04-15T03:44:07.303Z,69.68
2023-04-15T03:46:35.472Z,69.71
2023-04-15T03:49:04.210Z,69.76
2023-04-15T03:51:32.377Z,69.80
2023-04-15T03:54:00.661Z,69.82
2023-04-15T03:56:28.791Z,69.69
2023-04-15T03:58:56.994Z,69.65
2023-04-15T04:01:25.151Z,69.70
2023-04-15T04:03:53.549Z,69.73
2023-04-15T04:06:21.914Z,69.77
2023-04-15T04:08:50.013Z,69.76
2023-04-15T04:11:18.090Z,69.79
2023-04-15T04:13:46.199Z,69.72
2023-04-15T04:16:14.352Z,69.77
2023-04-15T04:18:42.530Z,69.79
2023-04-15T04:21:11.149Z,69.79
2023-04-15T04:23:39.634Z,69.80
2023-04-15T04:26:07.727Z,69.97
2023-04-15T04:28:36.514Z,69.93
2023-04-15T04:31:04.619Z,69.84
2023-04-15T04:33:32.830Z,69.85
2023-04-15T04:36:01.012Z,69.91
2023-04-15T04:38:29.384Z,69.94
2023-04-15T04:40:57.504Z,69.97
2023-04-15T04:43:25.692Z,69.95
2023-04-15T04:45:54.501Z,70.00
2023-04-15T04:48:23.353Z,69.98
2023-04-15T04:50:52.108Z,70.05
2023-04-15T04:53:20.639Z,69.99
2023-04-15T04:55:48.965Z,69.91
2023-04-15T04:58:17.068Z,69.90
2023-04-15T05:00:45.191Z,70.08
2023-04-15T05:03:13.535Z,70.01
2023-04-15T05:05:41.897Z,70.07
2023-04-15T05:08:09.958Z,70.12
2023-04-15T05:10:38.197Z,70.06
2023-04-15T05:13:06.475Z,70.02
2023-04-15T05:15:37.069Z,70.02
2023-04-15T05:18:05.410Z,70.03
2023-04-15T05:20:33.587Z,69.98
2023-04-15T05:23:01.723Z,69.97
2023-04-15T05:25:29.845Z,69.99
2023-04-15T05:27:58.034Z,70.09
2023-04-15T05:30:26.796Z,70.17
2023-04-15T05:32:54.895Z,70.16
2023-04-15T05:35:23.109Z,69.98
2023-04-15T05:37:51.291Z,70.10
2023-04-15T05:40:20.216Z,70.09
2023-04-15T05:42:48.453Z,70.22
2023-04-15T05:45:16.503Z,70.28
2023-04-15T05:47:44.886Z,70.33
2023-04-15T05:50:13.016Z,70.26
2023-04-15T05:52:41.145Z,70.25
2023-04-15T05:55:09.964Z,70.21
2023-04-15T05:57:38.740Z,70.19
2023-04-15T06:00:07.522Z,70.22
2023-04-15T06:02:38.966Z,70.23
2023-04-15T06:05:09.894Z,70.18
2023-04-15T06:07:38.859Z,70.13
2023-04-15T06:10:07.961Z,70.16
2023-04-15T06:12:36.583Z,70.16
2023-04-15T06:15:06.735Z,70.11
2023-04-15T06:17:34.928Z,70.19
2023-04-15T06:20:03.784Z,70.26
2023-04-15T06:22:32.215Z,70.17
2023-04-15T06:25:00.579Z,70.25
2023-04-15T06:27:28.785Z,70.30
2023-04-15T06:29:57.305Z,70.14
2023-04-15T06:32:25.786Z,70.20
2023-04-15T06:34:53.832Z,70.17
2023-04-15T06:37:22.243Z,70.18
2023-04-15T06:39:50.738Z,70.27
2023-04-15T06:42:19.074Z,70.25
2023-04-15T06:44:47.350Z,70.08
2023-04-15T06:47:15.458Z,70.28
2023-04-15T06:49:45.066Z,70.18
2023-04-15T06:52:13.723Z,70.14
2023-04-15T06:54:42.740Z,70.10
2023-04-15T06:57:10.953Z,70.12
2023-04-15T06:59:39.019Z,70.12
2023-04-15T07:02:12.764Z,70.15
2023-04-15T07:04:41.592Z,70.02
2023-04-15T07:07:09.669Z,69.92
2023-04-15T07:09:38.715Z,69.90
2023-04-15T07:12:06.843Z,69.94
2023-04-15T07:14:35.058Z,69.96
2023-04-15T07:17:03.403Z,69.93
2023-04-15T07:19:31.747Z,69.95
2023-04-15T07:22:00.878Z,69.93
2023-04-15T07:24:29.102Z,70.01
2023-04-15T07:26:59.514Z,69.99
2023-04-15T07:29:29.005Z,70.08
2023-04-15T07:31:57.506Z,70.01
2023-04-15T07:34:25.895Z,69.90
2023-04-15T07:36:54.014Z,69.97
2023-04-15T07:39:22.451Z,69.84
2023-04-15T07:41:50.649Z,69.97
2023-04-15T07:44:18.914Z,70.00
2023-04-15T07:46:46.998Z,70.00
2023-04-15T07:49:15.804Z,69.94
2023-04-15T07:51:44.530Z,69.99
2023-04-15T07:54:13.221Z,70.16
2023-04-15T07:56:41.747Z,70.18
2023-04-15T07:59:10.492Z,70.11
2023-04-15T08:01:39.089Z,70.00
2023-04-15T08:04:08.427Z,70.05
2023-04-15T08:06:39.962Z,70.08
2023-04-15T08:09:08.697Z,70.14
2023-04-15T08:11:37.710Z,69.96
2023-04-15T08:14:06.105Z,70.08
2023-04-15T08:16:34.706Z,70.07
2023-04-15T08:19:04.020Z,69.99
2023-04-15T08:21:32.542Z,70.01
2023-04-15T08:24:01.763Z,69.98
2023-04-15T08:26:29.969Z,69.97
2023-04-15T08:28:58.307Z,70.01
2023-04-15T08:31:27.453Z,70.08
2023-04-15T08:33:57.728Z,69.85
2023-04-15T08:36:27.227Z,69.80
2023-04-15T08:38:55.540Z,69.90
2023-04-15T08:41:25.777Z,69.89
2023-04-15T08:43:58.506Z,69.93
2023-04-15T08:46:27.843Z,69.90
2023-04-15T08:48:57.794Z,69.80
2023-04-15T08:51:27.373Z,69.80
2023-04-15T08:53:55.920Z,69.86
2023-04-15T08:56:28.560Z,69.78
2023-04-15T08:58:57.898Z,69.73
2023-04-15T09:01:26.680Z,69.77
2023-04-15T09:03:56.503Z,69.75
2023-04-15T09:06:26.225Z,69.62
2023-04-15T09:08:54.518Z,69.63
2023-04-15T09:11:22.934Z,69.70
2023-04-15T09:13:51.685Z,69.67
2023-04-15T09:16:20.499Z,69.69
2023-04-15T09:18:48.605Z,69.67
2023-04-15T09:21:18.204Z,69.66
2023-04-15T09:24:01.099Z,69.60
2023-04-15T09:26:37.538Z,69.53
2023-04-15T09:29:14.934Z,69.60
2023-04-15T09:31:43.673Z,69.57
2023-04-15T09:34:11.774Z,69.50
2023-04-15T09:36:58.083Z,69.51
2023-04-15T09:39:26.248Z,69.55
2023-04-15T09:42:07.026Z,69.50
2023-04-15T09:44:35.273Z,69.50
2023-04-15T09:47:03.566Z,69.50
2023-04-15T09:49:31.792Z,69.47
2023-04-15T09:52:05.552Z,69.51
2023-04-15T09:54:36.747Z,69.42
2023-04-15T09:57:06.978Z,69.58
2023-04-15T09:59:35.125Z,69.61
2023-04-15T10:02:07.727Z,69.59
2023-04-15T10:04:39.927Z,69.63
2023-04-15T10:07:13.082Z,69.62
2023-04-15T10:09:41.730Z,69.63
2023-04-15T10:12:10.461Z,69.60
2023-04-15T10:14:40.516Z,69.55
2023-04-15T10:17:12.861Z,69.59
2023-04-15T10:19:41.906Z,69.68
2023-04-15T10:22:10.513Z,69.67
2023-04-15T10:24:39.722Z,69.62
2023-04-15T10:27:09.125Z,69.59
2023-04-15T10:29:37.826Z,69.64
2023-04-15T10:32:06.360Z,69.73
2023-04-15T10:34:35.902Z,69.73
2023-04-15T10:37:04.855Z,69.62
2023-04-15T10:39:40.579Z,69.71
2023-04-15T10:42:17.017Z,69.55
2023-04-15T10:44:46.101Z,69.69
2023-04-15T10:47:19.717Z,69.56
2023-04-15T10:49:51.807Z,69.51
2023-04-15T10:52:28.118Z,69.51
2023-04-15T10:55:04.594Z,69.65
2023-04-15T10:57:39.083Z,69.73
2023-04-15T11:00:13.940Z,69.68
2023-04-15T11:02:45.253Z,69.69
2023-04-15T11:05:15.830Z,69.63
2023-04-15T11:07:48.550Z,69.68
2023-04-15T11:10:26.275Z,69.58
2023-04-15T11:12:58.494Z,69.64
2023-04-15T11:15:30.596Z,69.69
2023-04-15T11:18:09.737Z,69.61
2023-04-15T11:20:39.684Z,69.55
2023-04-15T11:23:15.170Z,69.58
2023-04-15T11:25:44.853Z,69.61
2023-04-15T11:28:13.806Z,69.60
2023-04-15T11:30:42.861Z,69.45
2023-04-15T11:33:12.592Z,69.65
2023-04-15T11:35:42.698Z,69.67
2023-04-15T11:38:12.673Z,69.60
2023-04-15T11:40:42.802Z,69.56
2023-04-15T11:43:16.701Z,69.44
2023-04-15T11:46:04.584Z,69.58
2023-04-15T11:48:35.814Z,69.58
2023-04-15T11:51:06.171Z,69.61
2023-04-15T11:53:37.418Z,69.58
2023-04-15T11:56:06.327Z,69.70
2023-04-15T11:58:39.296Z,69.59
2023-04-15T12:01:07.866Z,69.45
2023-04-15T12:03:44.192Z,69.50
2023-04-15T12:06:18.457Z,69.61
2023-04-15T12:08:50.123Z,69.51
2023-04-15T12:11:19.908Z,69.43
2023-04-15T12:13:49.688Z,69.42
2023-04-15T12:16:21.704Z,69.37
2023-04-15T12:18:56.161Z,69.43
2023-04-15T12:21:34.741Z,69.47
2023-04-15T12:24:05.680Z,69.39
2023-04-15T12:26:43.538Z,69.51
2023-04-15T12:29:13.812Z,69.47
2023-04-15T12:32:00.232Z,69.52
2023-04-15T12:34:33.859Z,69.59
2023-04-15T12:37:04.031Z,69.48
2023-04-15T12:39:42.242Z,69.44
2023-04-15T12:42:11.120Z,69.49
2023-04-15T12:44:40.066Z,69.50
2023-04-15T12:47:09.495Z,69.57
2023-04-15T12:49:38.381Z,69.54
2023-04-15T12:52:07.486Z,69.51
2023-04-15T12:54:36.513Z,69.51
2023-04-15T12:57:07.317Z,69.56
2023-04-15T12:59:36.602Z,69.56
2023-04-15T13:02:05.171Z,69.66
2023-04-15T13:04:33.557Z,69.63
2023-04-15T13:07:02.445Z,69.48
2023-04-15T13:09:31.207Z,69.49
2023-04-15T13:11:59.364Z,69.54
2023-04-15T13:14:27.817Z,69.54
2023-04-15T13:16:56.355Z,69.52
2023-04-15T13:19:24.539Z,69.43
2023-04-15T13:21:52.657Z,69.42
2023-04-15T13:24:21.082Z,69.43
2023-04-15T13:26:50.507Z,69.44
2023-04-15T13:29:18.895Z,69.44
2023-04-15T13:31:47.180Z,69.43
2023-04-15T13:34:15.915Z,69.49
2023-04-15T13:36:44.108Z,69.55
2023-04-15T13:39:12.209Z,69.55
2023-04-15T13:41:40.593Z,69.51
2023-04-15T13:44:08.722Z,69.52
2023-04-15T13:46:37.960Z,69.54
2023-04-15T13:49:06.204Z,69.49
2023-04-15T13:51:36.952Z,69.58
2023-04-15T13:54:05.398Z,69.53
2023-04-15T13:56:33.939Z,69.46
2023-04-15T13:59:03.395Z,69.44
2023-04-15T14:01:31.531Z,69.55
2023-04-15T14:03:59.826Z,69.54
2023-04-15T14:06:29.035Z,69.54
2023-04-15T14:08:57.218Z,69.49
2023-04-15T14:11:25.686Z,69.60
2023-04-15T14:13:53.777Z,69.63
2023-04-15T14:16:21.887Z,69.64
2023-04-15T14:18:49.977Z,69.65
2023-04-15T14:21:18.307Z,69.57
2023-04-15T14:23:46.426Z,69.54
2023-04-15T14:26:14.721Z,69.58
2023-04-15T14:28:45.125Z,69.50
2023-04-15T14:31:14.379Z,69.52
2023-04-15T14:33:43.238Z,69.54
2023-04-15T14:36:11.469Z,69.50
2023-04-15T14:38:40.259Z,69.53
2023-04-15T14:41:09.961Z,69.53
2023-04-15T14:43:39.496Z,69.57
2023-04-15T14:46:08.701Z,69.54
2023-04-15T14:48:37.335Z,69.49
2023-04-15T14:51:05.926Z,69.44
2023-04-15T14:53:34.333Z,69.50
2023-04-15T14:56:02.737Z,69.59
2023-04-15T14:58:31.326Z,69.62
2023-04-15T15:00:59.686Z,69.67
2023-04-15T15:03:27.938Z,69.60
2023-04-15T15:05:57.790Z,69.65
2023-04-15T15:08:26.141Z,69.72
2023-04-15T15:10:54.225Z,69.64
2023-04-15T15:13:22.414Z,69.61
2023-04-15T15:15:50.853Z,69.67
2023-04-15T15:18:19.703Z,69.63
2023-04-15T15:20:48.232Z,69.64
2023-04-15T15:23:16.482Z,69.73
2023-04-15T15:25:46.879Z,69.82
2023-04-15T15:28:15.046Z,69.75
2023-04-15T15:30:43.236Z,69.78
2023-04-15T15:33:11.505Z,69.71
2023-04-15T15:35:40.154Z,69.79
2023-04-15T15:38:11.837Z,69.77
2023-04-15T15:40:40.199Z,69.85
2023-04-15T15:43:08.337Z,69.81
2023-04-15T15:45:36.559Z,69.90
2023-04-15T15:48:05.258Z,69.72
2023-04-15T15:50:34.336Z,69.81
2023-04-15T15:53:02.451Z,69.95
2023-04-15T15:55:30.597Z,69.94
2023-04-15T15:57:58.824Z,69.81
2023-04-15T16:00:26.905Z,70.00
2023-04-15T16:05:29.971Z,69.88
2023-04-15T16:07:58.197Z,69.81
2023-04-15T16:10:26.462Z,69.89
2023-04-15T16:12:54.583Z,69.93
2023-04-15T16:15:25.377Z,69.95
2023-04-15T16:17:53.576Z,69.91
2023-04-15T16:20:21.784Z,69.86
2023-04-15T16:22:50.149Z,69.88
2023-04-15T16:25:18.604Z,69.92
2023-04-15T16:27:58.792Z,69.99
2023-04-15T16:30:31.551Z,69.98
2023-04-15T16:32:59.631Z,69.83
2023-04-15T16:35:28.499Z,69.80
2023-04-15T16:37:56.991Z,69.82
2023-04-15T16:40:26.187Z,69.86
2023-04-15T16:42:54.326Z,69.84
2023-04-15T16:45:22.360Z,69.86
2023-04-15T16:47:50.840Z,69.91
2023-04-15T16:50:20.042Z,69.88
2023-04-15T16:52:48.062Z,69.96
2023-04-15T16:55:16.447Z,69.98
2023-04-15T16:58:01.900Z,69.85
2023-04-15T17:00:32.390Z,69.86
2023-04-15T17:03:01.266Z,69.73
2023-04-15T17:05:33.268Z,69.82
2023-04-15T17:08:01.772Z,69.91
2023-04-15T17:10:30.813Z,69.92
2023-04-15T17:12:59.474Z,69.90
2023-04-15T17:15:27.644Z,69.99
2023-04-15T17:17:56.138Z,69.92
2023-04-15T17:20:24.857Z,69.84
2023-04-15T17:22:54.060Z,69.87
2023-04-15T17:25:23.410Z,69.82
2023-04-15T17:27:51.667Z,69.87
2023-04-15T17:30:20.006Z,69.82
2023-04-15T17:32:48.348Z,69.86
2023-04-15T17:35:16.541Z,69.92
2023-04-15T17:37:46.088Z,69.89
2023-04-15T17:40:15.031Z,69.89
2023-04-15T17:42:43.132Z,69.93
2023-04-15T17:45:11.767Z,69.92
2023-04-15T17:47:41.085Z,69.96
2023-04-15T17:50:09.690Z,69.92
2023-04-15T17:52:37.964Z,70.02
2023-04-15T17:55:07.438Z,69.84
2023-04-15T17:57:36.640Z,69.91
2023-04-15T18:00:07.066Z,69.82
2023-04-15T18:02:41.422Z,69.86
2023-04-15T18:05:10.706Z,69.96
2023-04-15T18:07:38.903Z,69.89
2023-04-15T18:10:08.770Z,69.88
2023-04-15T18:12:37.671Z,69.95
2023-04-15T18:15:07.039Z,69.91
2023-04-15T18:17:36.019Z,69.89
2023-04-15T18:20:04.601Z,69.96
2023-04-15T18:22:32.967Z,69.93
2023-04-15T18:25:04.418Z,69.97
2023-04-15T18:27:34.048Z,70.00
2023-04-15T18:30:02.159Z,69.93
2023-04-15T18:32:32.763Z,69.92
2023-04-15T18:35:01.620Z,69.99
2023-04-15T18:37:30.062Z,69.88
2023-04-15T18:39:59.457Z,69.93
2023-04-15T18:42:28.039Z,69.93
2023-04-15T18:44:56.477Z,69.92
2023-04-15T18:47:27.119Z,69.96
2023-04-15T18:49:55.857Z,70.09
2023-04-15T18:52:24.557Z,70.03
2023-04-15T18:54:53.202Z,70.00
2023-04-15T18:57:24.983Z,70.06
2023-04-15T19:00:00.632Z,70.09
2023-04-15T19:02:29.106Z,70.25
2023-04-15T19:04:57.721Z,70.24
2023-04-15T19:07:25.957Z,70.34
2023-04-15T19:09:54.667Z,70.47
2023-04-15T19:12:22.805Z,70.36
2023-04-15T19:14:50.909Z,70.36
2023-04-15T19:17:19.792Z,70.24
2023-04-15T19:19:47.892Z,70.38
2023-04-15T19:22:18.140Z,70.35
2023-04-15T19:24:46.809Z,70.45
2023-04-15T19:27:15.744Z,70.45
2023-04-15T19:29:44.146Z,70.47
2023-04-15T19:32:14.091Z,70.55
2023-04-15T19:34:42.515Z,70.53
2023-04-15T19:37:11.395Z,70.49
2023-04-15T19:39:39.756Z,70.59
2023-04-15T19:42:07.924Z,70.54
2023-04-15T19:44:37.361Z,70.62
2023-04-15T19:47:05.955Z,70.70
2023-04-15T19:49:34.057Z,70.63
2023-04-15T19:52:02.762Z,70.57
2023-04-15T19:54:32.430Z,70.58
2023-04-15T19:57:02.138Z,70.58
2023-04-15T19:59:30.453Z,70.62
2023-04-15T20:01:58.904Z,70.70
2023-04-15T20:04:27.573Z,70.70
2023-04-15T20:06:56.254Z,70.58
2023-04-15T20:09:24.851Z,70.68
2023-04-15T20:12:44.991Z,70.67
2023-04-15T20:14:42.090Z,70.68
2023-04-15T20:17:10.454Z,70.83
2023-04-15T20:19:39.239Z,70.82
2023-04-15T20:22:07.591Z,70.79
2023-04-15T20:24:35.792Z,70.76
2023-04-15T20:27:04.107Z,70.71
2023-04-15T20:29:32.346Z,70.66
2023-04-15T20:32:00.596Z,70.61
2023-04-15T20:34:29.019Z,70.70
2023-04-15T20:36:57.077Z,70.83
2023-04-15T20:39:25.414Z,70.80
2023-04-15T20:41:53.605Z,70.82
2023-04-15T20:44:22.210Z,70.73
2023-04-15T20:46:50.630Z,70.88
2023-04-15T20:49:18.965Z,70.79
2023-04-15T20:51:47.643Z,70.87
2023-04-15T20:54:16.344Z,70.83
2023-04-15T20:56:44.418Z,70.89
2023-04-15T20:59:12.733Z,70.90
2023-04-15T21:01:40.923Z,70.96
2023-04-15T21:04:09.064Z,70.93
2023-04-15T21:06:37.599Z,71.09
2023-04-15T21:09:06.454Z,70.95
2023-04-15T21:11:46.397Z,70.96
2023-04-15T21:14:23.319Z,70.89
2023-04-15T21:16:51.473Z,70.95
2023-04-15T21:19:19.760Z,70.96
2023-04-15T21:21:48.140Z,70.98
2023-04-15T21:24:16.419Z,70.94
2023-04-15T21:26:44.496Z,70.93
2023-04-15T21:29:13.082Z,71.02
2023-04-15T21:31:41.753Z,71.05
2023-04-15T21:34:10.511Z,71.04
2023-04-15T21:36:38.940Z,71.05
2023-04-15T21:39:07.256Z,70.95
2023-04-15T21:41:37.110Z,71.00
2023-04-15T21:44:05.538Z,71.04
2023-04-15T21:46:35.207Z,71.09
2023-04-15T21:49:04.499Z,71.14
2023-04-15T21:51:33.303Z,71.05
2023-04-15T21:54:01.450Z,70.98
2023-04-15T21:56:29.944Z,71.01
2023-04-15T21:58:58.278Z,71.06
2023-04-15T22:01:26.790Z,71.06
2023-04-15T22:03:55.262Z,71.02
2023-04-15T22:06:23.841Z,71.07
2023-04-15T22:08:57.436Z,71.02
2023-04-15T22:11:40.319Z,70.99
2023-04-15T22:14:09.296Z,71.16
2023-04-15T22:16:37.435Z,71.03
2023-04-15T22:19:05.856Z,71.10
2023-04-15T22:21:34.143Z,71.02
2023-04-15T22:24:31.658Z,71.02
2023-04-15T22:26:51.031Z,71.08
2023-04-15T22:29:19.292Z,71.06
2023-04-15T22:31:47.486Z,71.11
2023-04-15T22:34:20.867Z,71.05
2023-04-15T22:36:50.188Z,71.09
2023-04-15T22:39:19.667Z,71.05
2023-04-15T22:41:48.348Z,71.04
2023-04-15T22:44:16.632Z,71.06
2023-04-15T22:46:44.915Z,71.15
2023-04-15T22:49:13.022Z,71.02
2023-04-15T22:51:41.130Z,71.06
2023-04-15T22:54:09.706Z,71.13
2023-04-15T22:56:37.848Z,71.12
2023-04-15T22:59:06.029Z,71.16
2023-04-15T23:01:34.260Z,71.14
2023-04-15T23:04:05.548Z,71.06
2023-04-15T23:06:37.605Z,71.19
2023-04-15T23:09:05.885Z,70.99
2023-04-15T23:11:33.986Z,70.98
2023-04-15T23:14:02.132Z,71.00
2023-04-15T23:16:30.304Z,70.91
2023-04-15T23:18:58.419Z,70.97
2023-04-15T23:21:27.870Z,70.96
2023-04-15T23:23:56.113Z,70.98
2023-04-15T23:26:24.260Z,70.91
2023-04-15T23:28:52.588Z,70.98
2023-04-15T23:31:21.007Z,70.89
2023-04-15T23:33:49.361Z,70.78
2023-04-15T23:36:17.557Z,70.82
2023-04-15T23:38:46.251Z,70.94
2023-04-15T23:41:14.362Z,70.83
2023-04-15T23:43:42.412Z,70.78
2023-04-15T23:46:12.008Z,70.76
2023-04-15T23:48:41.020Z,70.91
2023-04-15T23:51:09.220Z,70.88
2023-04-15T23:53:37.328Z,70.83
2023-04-15T23:56:06.218Z,71.00
2023-04-15T23:58:34.717Z,70.88
